NWS Home NWS Lubbock West Texas Mesonet Latest Conditions as of 0654 PM, Tue Oct 27, 2020

Latest   N   C   S   Daily Sum   3hrΔ   24hrΔ   Soil Data 
Site Map   24hr Precip   72hr Precip   Google Plot


Station Time of Last Temp Dew Pt. RH Wind Direction Wind Speed Wind Gust Max Wind Max Temp Min Temp Max RH Min RH Altimeter 1HR Rain Today's Rain Solar Rad Wind ChillRFTI
Abernathy 5ENE  06:50 PM 27 26 95% N55 8 mph 26° @ 0128 AM 27 21 95 91 30.10" 0 0 2   0
Adrian 6WSW  06:50 PM 27 24 86% N67 14 mph 37° @ 0112 PM 28 15 93 84 30.10" 0 0.08 14 21 0
Aiken 3WSW  06:50 PM 26 25 98% N45 7 mph 23° @ 0222 PM 26 20 98 94 30.10" 0 0 1   0
Amarillo 15NNW   06:50 PM 29 22 76% N89 17 mph 18° @ 0249 AM 30 17 91 69 30.14" 0 0.13 2 22 0
Amarillo 7SSE  06:50 PM 26 25 96% N45 10 mph 18° @ 0735 AM 27 17 100 93 30.13" 0 0 2   0
Amarillo 9NNE  06:50 PM 27 23 85% N44 11 mph 1° @ 0332 AM 29 17 94 81 30.13" 0 0 5   0
Amherst 1NE  06:50 PM 27 26 96% N45 8 mph 9° @ 0545 AM 27 19 96 92 30.09" 0 0 3   0
Andrews 2E  06:50 PM 28 27 97% N45 7 mph 27° @ 0155 AM 28 24 97 95 30.08" 0 0 1   0
Anton 6SSW  06:50 PM 27 26 97% NW33 6 mph 2° @ 1225 AM 27 20 97 93 30.13" 0 0 1   0
Aspermont 3NE  06:50 PM 30 30 100% N12 7 mph 356° @ 0530 AM 31 25 100 98 30.12" 0 0.01 1   0
Big Bend NP - Castolon  06:50 PM 44 28 54% N1517 27 mph 342° @ 0126 PM 48 40 70 51 30.00" 0 0 10   0
Big Bend NP - Persimmon Gap  06:50 PM 37 27 67% NE1720 36 mph 39° @ 0101 AM 39 31 96 58 30.03" 0 0 5   0
Big Lake 1WNW  06:50 PM 30 30 98% N56 16 mph 13° @ 0101 AM 31 27 98 95 30.05" 0 0.05 3   0
Bootleg 11WNW  06:50 PM 27 25 93% N44 12 mph 4° @ 0158 AM 27 15 94 89 30.12" 0 0 9   0
Borger 7E  06:50 PM 27 23 87% N23 7 mph 15° @ 0230 PM 27 18 93 83 30.16" 0 0 3   0
Boys Ranch 1WSW  06:50 PM 29 24 81% NE56 20 mph 27° @ 0312 AM 30 18 90 64 30.15" 0 0.09 2   0
Brownfield 2S  06:50 PM 28 27 96% N44 7 mph 22° @ 0127 PM 28 23 96 90 30.06" 0 0 1   0
Canadian 6E  06:50 PM 28 24 82% NW910 21 mph 339° @ 0119 PM 29 20 97 79 30.15" 0 0 1 20 0
Caprock Canyons State Park  05:55 PM 27 26 97% N68 13 mph 359° @ 0134 AM 27 22 97 95 30.12" 0 0 28 21 0
Childress 2NNE  06:50 PM 29 28 96% N00 5 mph 0° @ 1240 AM 30 24 99 94 30.14" 0 0.07 1   0
Clarendon 2WSW  06:50 PM 27 25 94% N34 6 mph 26° @ 0220 AM 27 20 95 92 30.12" 0 0 1   0
Claude 12SW  06:50 PM 25 25 100% N1114 33 mph 360° @ 0311 AM 26 17 100 94 30.12" 0 0 1 14 0
Clyde 2WNW  06:50 PM 30 30 99% N22 9 mph 18° @ 1229 AM 31 27 99 97 30.07" 0 0 1   0
Colorado City 5NW  06:50 PM 30 28 96% N23 8 mph 24° @ 1243 AM 31 26 96 92 30.10" 0 0 2   0
Comanche Springs  06:50 PM 30 30 97% N12 10 mph 2° @ 0349 AM 32 26 97 92 30.18" 0 0 1   0
Coyanosa 2N  06:50 PM 31 30 94% NW57 14 mph 12° @ 1217 AM 33 28 97 86 30.13" 0 0.07 4 26 0
Crane 1NNW   06:50 PM 32 31 95% N67 17 mph 10° @ 0527 PM 33 28 96 84 30.10" 0 0.05 3 26 0
Crowell 1E  06:50 PM 31 30 98% N00 6 mph 13° @ 0307 AM 32 26 99 95 30.15" 0 0 1   0
Dell City  06:50 PM 30 21 70% N57 27 mph 23° @ 1220 AM 32 24 92 62 30.13" 0 0 58 24 0
Denver City 7WNW  06:50 PM 27 25 96% N78 12 mph 28° @ 1235 AM 27 21 97 94 30.09" 0 0 4 19 0
Dimmitt 2NE  06:50 PM 26 25 99% N34 16 mph 2° @ 0415 AM 26 17 99 94 30.12" 0 0 1   0
Doole 3WNW  06:50 PM 34 32 94% N911 18 mph 23° @ 1215 AM 35 31 97 90 30.06" 0.04 0.26 1 27 0
Dora NM 2SW  06:50 PM 26 25 97% N45 6 mph 20° @ 0505 AM 27 16 97 94 30.06" 0 0 9   0
Dozier 3W  06:50 PM 29 28 96% N45 12 mph 2° @ 0215 AM 29 22 99 91 30.15" 0 0 1   0
Earth 9WSW  06:50 PM 27 26 94% N44 6 mph 15° @ 0631 AM 27 18 94 83 30.09" 0 0 7   0
Endee NM 2SW  06:50 PM 28 24 84% NW44 22 mph 11° @ 0205 AM 30 17 94 77 30.14" 0.02 0.07 10   0
Estelline 3SSE  06:50 PM 30 28 93% N22 7 mph 1° @ 1230 AM 30 24 96 89 30.15" 0 0 1   0
Floydada 2NNE  06:50 PM 27 25 94% N33 7 mph 13° @ 0150 AM 28 22 94 91 30.09" 0 0 1   0
Fluvanna 3WNW  06:50 PM 27 26 96% N33 8 mph 27° @ 0800 AM 29 24 97 94 30.07" 0 0 2   0
Fort Chadbourne  06:50 PM 31 31 100% NE24 19 mph 32° @ 0117 AM 32 28 100 93 30.07" 0.01 0.07 1   0
Fort Lancaster  06:50 PM 33 33 100% NW1015 18 mph 350° @ 0344 PM 35 30 100 88 30.07" 0 0.08 4 25 0
Fort Lewis CO  06:50 PM 29 18 64% S56 19 mph 221° @ 0508 PM 43 11 100 43 30.07" 0 0 55 23 0
Fort McKavett  06:50 PM 33 33 100% N913 18 mph 18° @ 1226 AM 33 30 100 98 30.03" 0.01 0.21 2 25 0
Friona 2NE  06:50 PM 26 25 95% N79 24 mph 18° @ 0110 PM 27 16 95 88 30.14" 0 0.10 6 18 0
Fritch 1WNW  06:50 PM 29 21 71% N611 25 mph 24° @ 0633 AM 30 18 92 67 30.16" 0 0.14 2 23 0
Gail 2ESE  06:50 PM 29 27 93% N34 8 mph 17° @ 1255 AM 30 25 93 90 30.08" 0 0.01 2   0
Goodlett 3W  06:50 PM 30 29 96% N00 6 mph 330° @ 0635 AM 31 25 99 94 30.15" 0 0 1   0
Goodnight  06:50 PM 26 24 93% N44 9 mph 13° @ 0321 AM 26 18 94 86 30.14" 0 0 1   0
Graham 5SSW  06:50 PM 28 28 98% N23 11 mph 25° @ 0135 AM 28 23 98 95 30.08" 0 0 1   0
Guadalupe Mtns Natl Park  06:50 PM 21 20 97% N00 10 mph 57° @ 1204 AM 24 18 98 95 30.03" 0 0 20   0
Guthrie 10WSW  06:50 PM 30 28 94% N12 16 mph 358° @ 1125 AM 31 25 94 93 30.12" 0 0.01 1   0
Hackberry 2SSE  06:50 PM 30 30 99% N11 7 mph 14° @ 0342 AM 31 25 99 94 30.14" 0 0 1   0
Happy 1E  06:50 PM 26 25 96% N45 11 mph 8° @ 0310 AM 26 18 96 90 30.13" 0 0 1   0
Hart 3N  06:50 PM 26 26 99% N910 15 mph 10° @ 0125 PM 26 18 99 97 30.10" 0 0 1 17 0
Haskell 1NW  06:50 PM 31 30 98% NE11 5 mph 20° @ 0220 AM 31 27 98 96 30.11" 0 0.15 1   0
Hefner 1SW  06:40 PM 32 31 97% N00 5 mph 13° @ 0237 AM 32 28 97 94 30.13" 0 0 3   0
Hereford 2NW  06:50 PM 26 25 96% N45 11 mph 13° @ 0215 AM 26 17 96 86 30.11" 0 0 2   0
Hobbs NM 5NW  06:50 PM 26 26 96% N23 6 mph 32° @ 0122 AM 26 22 98 96 30.11" 0 0 2   0
Jayton 1SSE  06:50 PM 29 29 99% N23 8 mph 14° @ 1230 AM 31 25 99 96 30.11" 0 0.03 1   0
Junction 1SSW  06:50 PM 35 34 97% NE710 20 mph 351° @ 0805 AM 35 32 97 92 30.04" 0.01 0.28 1 29 0
Kent 9E  06:50 PM 25 23 95% N22 4 mph 38° @ 1229 AM 27 24 97 94 30.11" 0 0 5   0
Knox City 3NW  06:50 PM 31 30 94% N12 7 mph 3° @ 0404 AM 32 27 96 92 30.13" 0 0 1   0
Lake Alan Henry 1NW  06:50 PM 29 28 98% E11 8 mph 39° @ 0252 AM 31 25 99 96 30.10" 0 0 1   0
Lake McClellan 2NW  06:50 PM 25 24 94% N11 5 mph 356° @ 0141 AM 26 18 94 89 30.12" 0 0 2   0
Lamesa 2SE  06:50 PM 29 28 96% N33 7 mph 23° @ 1220 AM 30 24 96 93 30.08" 0 0 2   0
Lesley 2S  06:50 PM 30 28 92% N89 20 mph 357° @ 1255 AM 30 24 94 87 30.16" 0 0 1 23 0
Levelland 4S  06:50 PM 27 26 95% N33 7 mph 13° @ 1155 AM 28 21 96 91 30.06" 0 0 1   0
Lomax 1SSE  06:50 PM 31 29 93% N67 15 mph 7° @ 1241 AM 31 27 95 91 30.09" 0 0.01 3 25 0
Lubbock 3WNW TTU  06:50 PM 28 27 98% N46 8 mph 29° @ 0635 AM 28 22 98 93 30.09" 0 0 1   0
McAdoo 3NNW  06:50 PM 27 26 97% N00 4 mph 22° @ 1035 AM 28 22 97 93 30.09" 0 0 2   0
McCamey 1SSW  06:50 PM 33 30 90% N78 16 mph 28° @ 1213 AM 34 29 94 81 30.10" 0 0.02 4 27 0
McLean 1E  06:50 PM 26 25 99% N34 5 mph 348° @ 0405 PM 26 19 99 96 30.10" 0 0 2   0
Memphis 1NE  06:50 PM 30 28 93% N79 23 mph 0° @ 0500 AM 30 23 95 90 30.15" 0 0 1 23 0
Menard 2NW   06:50 PM 34 33 99% NE710 19 mph 10° @ 1237 AM 34 30 100 95 30.03" 0.01 0.22 1 28 0
Mertzon 3NNE  06:50 PM 32 32 100% N44 18 mph 5° @ 1236 AM 32 29 100 100 30.06" 0.01 0.26 2   0
Morton 1ENE  06:50 PM 27 26 96% N45 8 mph 13° @ 1215 AM 27 20 96 90 30.10" 0 0 6   0
Muleshoe 2SSW  06:50 PM 27 26 100% N1115 15 mph 358° @ 0650 PM 27 19 100 91 30.08" 0 0.01 7 17 0
New Home  06:50 PM 28 28 100% N45 8 mph 31° @ 0113 AM 28 23 100 94 30.09" 0 0 1   0
Northfield 1S  06:45 PM 29 28 95% N34 6 mph 20° @ 0305 AM 30 24 95 91 30.14" 0 0 3   0
O'Donnell 1N  06:50 PM 29 28 97% N22 6 mph 17° @ 0300 AM 29 23 97 93 30.06" 0 0 2   0
Odell 4ENE  06:50 PM 30 30 99% N1518 18 mph 2° @ 0650 PM 32 26 99 94 30.16" 0.01 0.43 1 19 0
Olton 6S  06:50 PM 26 26 99% N34 8 mph 25° @ 0640 AM 26 19 99 96 30.12" 0 0 1   0
Paducah 10SW  06:50 PM 29 29 100% NE11 24 mph 7° @ 1205 PM 30 24 100 98 30.13" 0 0 1   0
Palo Duro 4E (JA Ranch)  06:50 PM 28 26 91% N33 5 mph 3° @ 0132 AM 29 21 95 87 30.15" 0 0 1   0
Palo Duro Canyon SP Floor  06:50 PM 29 26 86% NW710 28 mph 353° @ 1213 AM 30 21 89 78 30.17" 0 0 1 22 0
Palo Duro Canyon State Park Rim  06:50 PM 26 24 92% N78 19 mph 354° @ 0350 AM 27 18 94 85 30.14" 0 0 1 19 0
Palo Duro Reservoir 1NW   05:15 PM 29 19 66% N89 15 mph 351° @ 0327 PM 30 17 90 59 30.16" 0 0.26 99 21 0
Pampa 2E  06:50 PM 24 23 97% N1014 28 mph 353° @ 0355 AM 25 17 97 93 30.13" 0 0 2 14 0
Panhandle 1SSW  06:50 PM 25 24 100% N66 10 mph 352° @ 0358 AM 25 17 100 93 30.13" 0 0 2 18 0
Plains 3N  06:50 PM 26 26 98% N57 11 mph 17° @ 1210 AM 26 20 98 94 30.06" 0 0 3   0
Plainview 1S  06:50 PM 26 25 95% N810 15 mph 8° @ 0604 AM 27 20 96 91 30.10" 0 0 1 17 0
Post 1NE  06:50 PM 30 28 95% N56 22 mph 15° @ 0100 AM 30 25 95 91 30.10" 0 0 1 25 0
Ralls 1SE  06:50 PM 28 25 90% N33 7 mph 13° @ 0410 AM 28 22 90 87 30.09" 0 0 1   0
Reese Center  06:50 PM 27 26 96% N1316 25 mph 22° @ 1203 PM 27 21 96 91 30.10" 0 0 2 16 0
Roaring Springs 3N  06:50 PM 28 27 100% N58 30 mph 360° @ 0320 AM 28 22 100 100 30.10" 0 0 1   0
Romero 11SSW  06:50 PM 29 22 75% N89 26 mph 5° @ 0252 AM 31 17 91 67 30.11" 0 0.15 8 21 0
Rotan 5W  06:50 PM 29 28 97% N23 14 mph 341° @ 0423 AM 31 25 98 95 30.11" 0 0 2   0
San Angelo 7NW  06:50 PM 32 31 96% N57 17 mph 342° @ 0635 AM 33 29 97 92 30.05" 0.01 0.16 1   0
Seagraves 1SW  06:50 PM 28 27 98% N34 7 mph 23° @ 0625 AM 28 22 98 95 30.08" 0 0 4   0
Segovia 7SSW  06:50 PM 33 32 97% N1012 20 mph 14° @ 0210 AM 34 31 98 96 30.00" 0.01 0.27 1 25 0
Seminole 2NNE  06:50 PM 28 26 95% N22 7 mph 19° @ 1235 AM 28 24 95 93 30.07" 0 0 2   0
Seymour 3NW  06:50 PM 32 31 98% N00 6 mph 5° @ 0225 AM 32 28 99 94 30.13" 0.04 0.07 1   0
Sierra Blanca 1SSE  06:50 PM 26 22 82% N1214 30 mph 107° @ 0359 AM 30 24 92 74 30.08" 0 0.01 21 15 0
Silverton 7ESE  06:50 PM 26 26 100% N22 5 mph 4° @ 0110 AM 26 20 100 95 30.09" 0 0 1   0
Slaton 2NE  06:50 PM 28 27 96% N57 12 mph 13° @ 0440 AM 28 23 97 92 30.09" 0 0 1 22 0
Smyer  06:50 PM 28 27 95% N1213 17 mph 4° @ 1240 AM 28 21 96 90 30.09" 0 0 2 18 0
Snyder 3E  06:50 PM 28 28 99% N47 26 mph 28° @ 0430 AM 30 25 100 97 30.07" 0 0.07 1   0
Snyder 3SSW  06:50 PM 28 28 100% NE33 7 mph 51° @ 0418 AM 30 25 100 99 30.09" 0 0 1   0
South Plains 3ENE  06:50 PM 27 26 98% N33 7 mph 10° @ 0254 AM 27 21 98 94 30.10" 0 0 1   0
Spur 1W  06:50 PM 29 28 95% N35 19 mph 25° @ 1225 AM 30 25 95 90 30.10" 0 0 1   0
St. Lawrence 5SW  06:50 PM 30 29 97% N33 8 mph 20° @ 1210 AM 30 27 97 91 30.06" 0 0.03 3   0
Stamford 5ESE  06:50 PM 31 31 99% N00 10 mph 17° @ 1205 AM 32 28 99 96 30.12" 0 0 1   0
Sterling City 4WSW  06:50 PM 30 30 100% N57 15 mph 24° @ 1210 AM 31 27 100 99 30.08" 0 0.01 1 25 0
Stinnett 1NNW  06:50 PM 27 21 79% N811 21 mph 6° @ 0252 PM 29 16 97 65 30.15" 0 0.18 3 19 0
Stratford 4WNW  06:50 PM 27 22 80% N67 14 mph 359° @ 0138 PM 30 16 89 68 30.13" 0 0.24 8 20 0
Sundown 8WSW  06:50 PM 27 25 94% N68 9 mph 19° @ 1215 AM 27 20 94 90 30.04" 0 0 5 20 0
Sweetwater 11SW   06:50 PM 29 28 97% N34 7 mph 28° @ 1230 AM 30 25 97 94 30.07" 0 0 3   0
Tahoka 3NNE  06:50 PM 28 27 97% N44 8 mph 17° @ 0210 AM 28 23 97 93 30.07" 0 0 1   0
Tarzan 2WNW  06:50 PM 30 30 100% N44 10 mph 3° @ 0524 AM 31 25 100 93 30.09" 0 0.01 1   0
Throckmorton 1SW  06:50 PM 32 32 100% N00 14 mph 352° @ 0109 AM 32 29 100 98 30.12" 0.02 0.05 1   0
Truscott 2SE  06:50 PM 31 29 96% N01 5 mph 10° @ 0534 AM 32 27 97 92 30.14" 0 0.01 1   0
Tulia 2ENE  06:50 PM 27 25 94% N67 8 mph 6° @ 0205 AM 27 19 94 91 30.12" 0 0 1 21 0
Turkey 2WSW  06:50 PM 28 28 98% NW22 7 mph 341° @ 0125 AM 28 23 98 95 30.12" 0 0 1   0
Umbarger 3NNE  06:50 PM 26 24 94% N45 10 mph 25° @ 0338 AM 26 17 95 84 30.12" 0 0 2   0
Van Horn 3ENE  06:50 PM 27 19 71% NE1316 30 mph 27° @ 0214 PM 30 23 96 70 30.10" 0 0 18 16 0
Vega 4E  06:50 PM 26 25 95% NE1012 30 mph 11° @ 0229 AM 27 16 95 86 30.10" 0 0.10 1 16 0
Vigo Park  06:50 PM 26 26 100% N45 7 mph 18° @ 0718 AM 27 18 100 94 30.11" 0 0 2   0
Wall 2E  06:50 PM 33 32 98% N1012 18 mph 3° @ 0421 PM 33 30 99 96 30.07" 0.02 0.46 1 25 0
Weinert 2NNE  06:50 PM 31 30 94% N00 5 mph 14° @ 0136 AM 32 27 94 91 30.12" 0 0.01 1   0
Welch  06:50 PM 28 28 100% N33 6 mph 29° @ 0842 AM 29 24 100 100 30.09" 0 0 1   0
White River Lake 6NW  06:50 PM 28 28 96% N33 12 mph 11° @ 1201 AM 29 24 96 89 30.09" 0 0 1   0
Wolfforth 6SSW  06:50 PM 27 27 97% N55 8 mph 17° @ 1156 AM 27 22 97 92 30.09" 0 0 2   0

West Texas Mesonet Home   Site Map/Menu  NWS Lubbock Soil Data  Daily Summary Page  24hr Precip  72hr Precip  Google Plot